createdAt,value
2023-01-25T00:00:00.832Z,40.03
2023-01-25T00:02:27.905Z,45.97
2023-01-25T00:04:54.785Z,44.78
2023-01-25T00:07:21.235Z,44.80
2023-01-25T00:09:47.690Z,47.45
2023-01-25T00:12:14.262Z,57.63
2023-01-25T00:14:40.774Z,54.33
2023-01-25T00:17:07.249Z,50.75
2023-01-25T00:19:33.878Z,53.95
2023-01-25T00:22:00.369Z,49.22
2023-01-25T00:24:27.226Z,47.72
2023-01-25T00:26:53.754Z,51.05
2023-01-25T00:29:20.153Z,50.50
2023-01-25T00:31:49.437Z,56.63
2023-01-25T00:34:42.205Z,59.27
2023-01-25T00:37:25.306Z,51.38
2023-01-25T00:39:52.175Z,51.38
2023-01-25T00:42:20.148Z,64.13
2023-01-25T00:44:47.618Z,63.75
2023-01-25T00:47:15.467Z,56.83
2023-01-25T00:49:43.096Z,56.08
2023-01-25T00:52:13.193Z,59.50
2023-01-25T00:54:40.280Z,59.08
2023-01-25T00:57:08.244Z,55.00
2023-01-25T00:59:34.692Z,51.42
2023-01-25T01:02:01.468Z,48.92
2023-01-25T01:04:28.044Z,46.78
2023-01-25T01:06:55.226Z,62.15
2023-01-25T01:09:23.494Z,59.17
2023-01-25T01:11:50.214Z,59.97
2023-01-25T01:14:16.713Z,59.90
2023-01-25T01:16:43.143Z,63.67
2023-01-25T01:19:10.764Z,53.67
2023-01-25T01:21:37.344Z,50.33
2023-01-25T01:24:04.370Z,53.40
2023-01-25T01:26:30.781Z,53.17
2023-01-25T01:28:58.920Z,54.30
2023-01-25T01:31:25.453Z,57.33
2023-01-25T01:33:53.910Z,51.45
2023-01-25T01:36:25.957Z,58.95
2023-01-25T01:38:52.909Z,51.65
2023-01-25T01:41:20.047Z,47.58
2023-01-25T01:43:46.894Z,53.80
2023-01-25T01:46:34.417Z,49.15
2023-01-25T01:49:12.352Z,54.83
2023-01-25T01:51:56.236Z,52.67
2023-01-25T01:54:35.275Z,64.50
2023-01-25T01:57:10.528Z,61.60
2023-01-25T01:59:44.577Z,54.67
2023-01-25T02:02:11.441Z,55.83
2023-01-25T02:04:38.031Z,56.28
2023-01-25T02:07:11.658Z,55.15
2023-01-25T02:09:38.090Z,55.63
2023-01-25T02:12:07.480Z,60.50
2023-01-25T02:14:34.661Z,60.72
2023-01-25T02:17:01.351Z,56.95
2023-01-25T02:19:50.158Z,54.10
2023-01-25T02:22:23.026Z,55.55
2023-01-25T02:25:10.081Z,56.45
2023-01-25T02:27:40.748Z,59.58
2023-01-25T02:30:08.811Z,55.83
2023-01-25T02:32:35.326Z,59.72
2023-01-25T02:35:02.019Z,56.83
2023-01-25T02:37:31.589Z,48.80
2023-01-25T02:39:58.021Z,52.47
2023-01-25T02:42:24.630Z,45.95
2023-01-25T02:44:52.310Z,51.95
2023-01-25T02:47:18.889Z,50.10
2023-01-25T02:49:45.301Z,51.08
2023-01-25T02:52:11.764Z,52.22
2023-01-25T02:54:38.222Z,52.42
2023-01-25T02:57:04.770Z,55.17
2023-01-25T02:59:31.132Z,51.67
2023-01-25T03:01:57.580Z,59.80
2023-01-25T03:04:24.701Z,58.13
2023-01-25T03:06:51.942Z,51.70
2023-01-25T03:09:18.425Z,57.20
2023-01-25T03:11:44.995Z,68.43
2023-01-25T03:14:11.462Z,57.83
2023-01-25T03:16:38.087Z,58.10
2023-01-25T03:19:04.581Z,59.47
2023-01-25T03:21:31.484Z,59.42
2023-01-25T03:24:01.458Z,58.67
2023-01-25T03:26:29.246Z,62.95
2023-01-25T03:28:55.739Z,56.88
2023-01-25T03:31:22.296Z,50.60
2023-01-25T03:33:49.714Z,60.95
2023-01-25T03:36:16.467Z,71.70
2023-01-25T03:38:43.145Z,58.95
2023-01-25T03:41:09.958Z,66.15
2023-01-25T03:43:36.379Z,61.30
2023-01-25T03:46:03.016Z,62.83
2023-01-25T03:48:29.708Z,56.22
2023-01-25T03:50:58.193Z,61.60
2023-01-25T03:53:29.991Z,72.53
2023-01-25T03:56:02.440Z,66.55
2023-01-25T03:58:30.316Z,74.93
2023-01-25T04:00:59.045Z,73.47
2023-01-25T04:03:26.184Z,73.47
2023-01-25T04:05:53.720Z,60.03
2023-01-25T04:08:20.624Z,57.28
2023-01-25T04:10:56.233Z,64.88
2023-01-25T04:13:24.970Z,61.03
2023-01-25T04:15:52.235Z,54.97
2023-01-25T04:18:19.421Z,54.63
2023-01-25T04:20:55.312Z,51.97
2023-01-25T04:23:22.728Z,52.97
2023-01-25T04:25:54.181Z,58.63
2023-01-25T04:28:20.943Z,58.17
2023-01-25T04:30:47.560Z,63.63
2023-01-25T04:33:14.612Z,59.70
2023-01-25T04:35:41.232Z,53.13
2023-01-25T04:38:07.831Z,52.60
2023-01-25T04:40:34.287Z,55.70
2023-01-25T04:43:00.721Z,55.83
2023-01-25T04:45:27.302Z,59.10
2023-01-25T04:48:05.792Z,52.17
2023-01-25T04:50:32.334Z,54.03
2023-01-25T04:52:58.844Z,48.22
2023-01-25T04:55:25.262Z,47.20
2023-01-25T04:57:51.836Z,52.00
2023-01-25T05:00:19.243Z,53.55
2023-01-25T05:02:45.771Z,53.50
2023-01-25T05:05:12.551Z,54.10
2023-01-25T05:07:39.390Z,51.22
2023-01-25T05:10:06.794Z,52.45
2023-01-25T05:12:33.483Z,53.67
2023-01-25T05:14:59.894Z,51.50
2023-01-25T05:17:26.436Z,51.15
2023-01-25T05:19:52.951Z,53.85
2023-01-25T05:22:20.962Z,59.92
2023-01-25T05:24:48.144Z,58.03
2023-01-25T05:27:17.655Z,56.92
2023-01-25T05:29:45.463Z,53.60
2023-01-25T05:32:17.937Z,55.75
2023-01-25T05:34:45.265Z,57.22
2023-01-25T05:37:14.351Z,48.90
2023-01-25T05:39:40.941Z,52.67
2023-01-25T05:42:18.342Z,60.08
2023-01-25T05:44:47.581Z,52.38
2023-01-25T05:47:16.351Z,56.65
2023-01-25T05:49:42.896Z,51.05
2023-01-25T05:52:14.896Z,52.92
2023-01-25T05:54:41.375Z,57.75
2023-01-25T05:57:07.945Z,48.22
2023-01-25T05:59:34.492Z,58.35
2023-01-25T06:02:01.161Z,52.53
2023-01-25T06:04:27.684Z,48.25
2023-01-25T06:06:54.110Z,56.60
2023-01-25T06:09:20.462Z,49.00
2023-01-25T06:11:46.914Z,48.50
2023-01-25T06:14:13.513Z,45.70
2023-01-25T06:16:40.145Z,54.35
2023-01-25T06:19:07.509Z,55.70
2023-01-25T06:21:37.752Z,47.03
2023-01-25T06:26:31.349Z,51.33
2023-01-25T06:28:57.903Z,50.40
2023-01-25T06:31:24.466Z,47.97
2023-01-25T06:33:52.576Z,49.63
2023-01-25T06:36:20.207Z,48.25
2023-01-25T06:38:51.088Z,46.50
2023-01-25T06:41:18.354Z,49.33
2023-01-25T06:43:45.447Z,45.47
2023-01-25T06:46:12.611Z,50.83
2023-01-25T06:48:40.139Z,52.97
2023-01-25T06:51:08.623Z,48.15
2023-01-25T06:53:39.474Z,49.83
2023-01-25T06:56:10.905Z,51.10
2023-01-25T06:58:38.817Z,54.55
2023-01-25T07:01:12.456Z,58.00
2023-01-25T07:03:39.487Z,50.45
2023-01-25T07:06:07.929Z,48.03
2023-01-25T07:08:35.137Z,53.65
2023-01-25T07:11:04.323Z,44.88
2023-01-25T07:13:32.396Z,45.22
2023-01-25T07:16:01.556Z,56.97
2023-01-25T07:18:30.010Z,54.15
2023-01-25T07:21:13.686Z,55.90
2023-01-25T07:23:41.637Z,47.40
2023-01-25T07:26:17.683Z,49.40
2023-01-25T07:28:45.739Z,53.53
2023-01-25T07:31:12.518Z,53.88
2023-01-25T07:33:38.912Z,60.40
2023-01-25T07:36:07.937Z,55.13
2023-01-25T07:38:34.905Z,53.13
2023-01-25T07:41:01.552Z,54.67
2023-01-25T07:43:29.226Z,61.75
2023-01-25T07:46:01.866Z,56.40
2023-01-25T07:48:28.487Z,52.08
2023-01-25T07:51:20.529Z,61.25
2023-01-25T07:53:47.503Z,55.80
2023-01-25T07:56:14.076Z,51.50
2023-01-25T07:58:40.481Z,65.75
2023-01-25T08:01:18.302Z,79.28
2023-01-25T08:03:45.996Z,99.30
2023-01-25T08:06:12.823Z,84.45
2023-01-25T08:08:42.280Z,77.43
2023-01-25T08:11:18.192Z,68.30
2023-01-25T08:13:47.590Z,57.33
2023-01-25T08:16:14.811Z,57.95
2023-01-25T08:18:41.347Z,97.78
2023-01-25T08:21:08.538Z,153.27
2023-01-25T08:23:35.350Z,83.03
2023-01-25T08:26:04.739Z,67.68
2023-01-25T08:28:31.421Z,78.25
2023-01-25T08:31:16.583Z,74.18
2023-01-25T08:33:44.468Z,68.13
2023-01-25T08:36:11.073Z,74.50
2023-01-25T08:38:41.986Z,115.55
2023-01-25T08:41:15.782Z,63.05
2023-01-25T08:43:44.475Z,56.40
2023-01-25T08:46:11.267Z,57.05
2023-01-25T08:48:37.818Z,61.63
2023-01-25T08:51:04.460Z,92.63
2023-01-25T08:53:31.993Z,77.20
2023-01-25T08:56:12.159Z,60.85
2023-01-25T09:01:08.760Z,55.42
2023-01-25T09:03:36.740Z,53.65
2023-01-25T09:06:03.309Z,83.35
2023-01-25T09:08:29.868Z,120.72
2023-01-25T09:11:01.433Z,111.65
2023-01-25T09:13:28.193Z,80.85
2023-01-25T09:16:06.708Z,72.07
2023-01-25T09:18:35.448Z,94.22
2023-01-25T09:21:10.324Z,103.95
2023-01-25T09:23:50.481Z,94.25
2023-01-25T09:26:18.952Z,86.82
2023-01-25T09:28:50.787Z,69.63
2023-01-25T09:31:22.033Z,64.22
2023-01-25T09:33:50.370Z,68.20
2023-01-25T09:36:17.073Z,74.35
2023-01-25T09:38:43.602Z,72.13
2023-01-25T09:41:21.888Z,87.97
2023-01-25T09:44:25.299Z,81.15
2023-01-25T09:46:56.078Z,96.18
2023-01-25T09:49:31.635Z,79.20
2023-01-25T09:51:58.226Z,70.70
2023-01-25T09:54:28.502Z,90.38
2023-01-25T09:56:57.348Z,86.97
2023-01-25T09:59:28.512Z,85.57
2023-01-25T10:02:05.746Z,87.10
2023-01-25T10:04:40.181Z,94.25
2023-01-25T10:07:18.644Z,88.82
2023-01-25T10:09:53.310Z,91.22
2023-01-25T10:12:23.767Z,94.13
2023-01-25T10:14:51.542Z,95.40
2023-01-25T10:17:40.406Z,93.82
2023-01-25T10:20:25.330Z,95.80
2023-01-25T10:23:08.381Z,98.43
2023-01-25T10:25:41.466Z,93.88
2023-01-25T10:28:24.640Z,96.03
2023-01-25T10:31:02.563Z,97.80
2023-01-25T10:33:34.854Z,97.10
2023-01-25T10:36:04.545Z,102.75
2023-01-25T10:38:45.370Z,99.43
2023-01-25T10:41:30.537Z,100.57
2023-01-25T10:44:15.801Z,96.60
2023-01-25T10:46:49.285Z,96.68
2023-01-25T10:49:22.030Z,98.03
2023-01-25T10:51:48.499Z,96.15
2023-01-25T10:54:16.580Z,93.53
2023-01-25T10:56:46.080Z,103.95
2023-01-25T10:59:23.609Z,91.57
2023-01-25T11:01:50.084Z,98.70
2023-01-25T11:04:35.185Z,104.50
2023-01-25T11:07:06.001Z,99.68
2023-01-25T11:09:34.045Z,99.07
2023-01-25T11:12:03.289Z,106.60
2023-01-25T11:14:32.167Z,99.50
2023-01-25T11:17:01.701Z,96.88
2023-01-25T11:19:32.776Z,94.15
2023-01-25T11:22:01.213Z,100.68
2023-01-25T11:24:33.449Z,103.63
2023-01-25T11:27:18.730Z,106.15
2023-01-25T11:29:47.126Z,202.30
2023-01-25T11:32:21.541Z,131.88
2023-01-25T11:34:50.159Z,302.80
2023-01-25T11:37:32.336Z,186.95
2023-01-25T11:40:13.120Z,107.78
2023-01-25T11:43:06.194Z,129.18
2023-01-25T11:45:55.373Z,98.20
2023-01-25T11:48:32.989Z,151.70
2023-01-25T11:51:07.110Z,102.82
2023-01-25T11:54:05.855Z,94.05
2023-01-25T11:56:57.207Z,99.63
2023-01-25T11:59:35.572Z,102.78
2023-01-25T12:02:02.711Z,115.78
2023-01-25T12:04:47.320Z,98.43
2023-01-25T12:07:37.163Z,93.78
2023-01-25T12:10:14.455Z,88.65
2023-01-25T12:13:11.338Z,101.25
2023-01-25T12:16:02.217Z,85.07
2023-01-25T12:18:37.733Z,95.05
2023-01-25T12:21:31.468Z,80.55
2023-01-25T12:24:25.811Z,82.18
2023-01-25T12:26:52.290Z,100.82
2023-01-25T12:29:18.740Z,90.35
2023-01-25T12:32:05.144Z,92.43
2023-01-25T12:34:41.376Z,106.00
2023-01-25T12:37:32.751Z,90.18
2023-01-25T12:40:04.841Z,90.55
2023-01-25T12:42:44.440Z,121.30
2023-01-25T12:45:25.225Z,93.75
2023-01-25T12:48:13.122Z,109.70
2023-01-25T12:50:49.614Z,110.95
2023-01-25T12:53:52.427Z,90.35
2023-01-25T12:57:09.752Z,115.20
2023-01-25T13:00:19.617Z,97.25
2023-01-25T13:03:06.839Z,85.25
2023-01-25T13:05:51.877Z,90.13
2023-01-25T13:08:34.524Z,79.05
2023-01-25T13:11:31.912Z,86.72
2023-01-25T13:14:16.707Z,89.25
2023-01-25T13:17:10.372Z,90.97
2023-01-25T13:19:37.499Z,78.35
2023-01-25T13:22:04.908Z,85.07
2023-01-25T13:24:55.317Z,85.05
2023-01-25T13:27:27.254Z,92.32
2023-01-25T13:29:59.369Z,91.20
2023-01-25T13:32:25.808Z,100.75
2023-01-25T13:34:52.205Z,90.43
2023-01-25T13:37:21.628Z,80.78
2023-01-25T13:40:07.767Z,87.10
2023-01-25T13:42:38.576Z,83.72
2023-01-25T13:45:15.725Z,86.22
2023-01-25T13:47:44.117Z,81.85
2023-01-25T13:50:25.863Z,93.35
2023-01-25T13:53:03.745Z,89.47
2023-01-25T13:55:39.681Z,90.95
2023-01-25T13:58:22.336Z,90.18
2023-01-25T14:01:08.585Z,96.80
2023-01-25T14:03:51.143Z,98.65
2023-01-25T14:06:22.207Z,91.25
2023-01-25T14:08:49.860Z,98.70
2023-01-25T14:11:22.451Z,96.45
2023-01-25T14:14:02.489Z,97.45
2023-01-25T14:16:31.052Z,110.35
2023-01-25T14:19:18.507Z,152.20
2023-01-25T14:21:44.909Z,112.68
2023-01-25T14:24:11.884Z,100.43
2023-01-25T14:26:41.946Z,109.53
2023-01-25T14:29:35.393Z,131.57
2023-01-25T14:32:03.042Z,108.20
2023-01-25T14:34:29.541Z,119.40
2023-01-25T14:37:18.566Z,120.57
2023-01-25T14:39:46.131Z,108.53
2023-01-25T14:42:12.998Z,122.35
2023-01-25T14:44:40.096Z,114.97
2023-01-25T14:47:30.068Z,110.30
2023-01-25T14:50:35.572Z,129.02
2023-01-25T14:53:23.611Z,113.57
2023-01-25T14:55:51.125Z,126.72
2023-01-25T14:58:20.970Z,119.80
2023-01-25T15:01:02.238Z,117.28
2023-01-25T15:03:30.797Z,118.93
2023-01-25T15:06:02.942Z,118.50
2023-01-25T15:08:37.162Z,119.07
2023-01-25T15:11:22.464Z,121.28
2023-01-25T15:13:49.016Z,112.45
2023-01-25T15:16:16.460Z,120.47
2023-01-25T15:18:43.174Z,148.52
2023-01-25T15:21:17.215Z,157.63
2023-01-25T15:23:45.974Z,239.93
2023-01-25T15:26:25.892Z,172.50
2023-01-25T15:28:55.675Z,129.23
2023-01-25T15:31:26.334Z,121.50
2023-01-25T15:33:53.334Z,117.88
2023-01-25T15:36:20.286Z,122.60
2023-01-25T15:38:46.824Z,124.43
2023-01-25T15:41:14.197Z,154.00
2023-01-25T15:43:41.304Z,111.05
2023-01-25T15:46:16.980Z,119.22
2023-01-25T15:48:45.342Z,133.38
2023-01-25T15:51:12.996Z,117.82
2023-01-25T15:53:40.155Z,114.03
2023-01-25T15:56:13.007Z,128.70
2023-01-25T15:58:41.735Z,151.38
2023-01-25T16:01:08.758Z,120.90
2023-01-25T16:03:35.716Z,116.28
2023-01-25T16:06:16.897Z,109.70
2023-01-25T16:08:43.500Z,106.57
2023-01-25T16:11:10.067Z,119.72
2023-01-25T16:13:36.855Z,101.90
2023-01-25T16:16:03.606Z,110.80
2023-01-25T16:18:30.176Z,112.05
2023-01-25T16:20:56.603Z,112.22
2023-01-25T16:23:22.996Z,103.20
2023-01-25T16:25:49.463Z,104.00
2023-01-25T16:28:16.257Z,115.80
2023-01-25T16:30:45.031Z,105.65
2023-01-25T16:33:11.858Z,106.63
2023-01-25T16:35:38.533Z,126.30
2023-01-25T16:38:05.123Z,113.07
2023-01-25T16:40:39.719Z,124.88
2023-01-25T16:43:06.482Z,135.45
2023-01-25T16:45:33.044Z,121.30
2023-01-25T16:48:00.015Z,140.07
2023-01-25T16:50:26.530Z,129.55
2023-01-25T16:52:54.733Z,124.22
2023-01-25T16:55:21.162Z,127.95
2023-01-25T16:57:51.321Z,130.43
2023-01-25T17:02:58.199Z,145.55
2023-01-25T17:05:29.219Z,136.85
2023-01-25T17:07:55.955Z,128.20
2023-01-25T17:10:23.560Z,143.27
2023-01-25T17:12:50.564Z,161.48
2023-01-25T17:15:19.866Z,141.25
2023-01-25T17:17:46.558Z,179.37
2023-01-25T17:20:13.103Z,137.70
2023-01-25T17:22:40.508Z,152.90
2023-01-25T17:25:07.317Z,126.22
2023-01-25T17:27:33.749Z,135.10
2023-01-25T17:30:00.184Z,146.73
2023-01-25T17:32:26.628Z,160.65
2023-01-25T17:34:53.770Z,139.13
2023-01-25T17:37:20.335Z,515.28
2023-01-25T17:39:47.635Z,285.77
2023-01-25T17:42:14.587Z,265.88
2023-01-25T17:44:41.201Z,310.08
2023-01-25T17:47:07.596Z,359.98
2023-01-25T17:49:34.148Z,214.95
2023-01-25T17:52:02.232Z,256.50
2023-01-25T17:54:28.851Z,187.68
2023-01-25T17:56:55.535Z,168.55
2023-01-25T17:59:22.052Z,163.43
2023-01-25T18:01:48.607Z,176.60
2023-01-25T18:04:18.098Z,192.65
2023-01-25T18:06:44.766Z,195.23
2023-01-25T18:09:11.257Z,172.30
2023-01-25T18:11:40.795Z,189.05
2023-01-25T18:14:12.803Z,161.68
2023-01-25T18:16:40.729Z,159.68
2023-01-25T18:19:07.975Z,148.07
2023-01-25T18:21:35.006Z,152.95
2023-01-25T18:24:23.428Z,152.23
2023-01-25T18:26:50.858Z,152.57
2023-01-25T18:29:17.265Z,159.00
2023-01-25T18:31:44.230Z,154.85
2023-01-25T18:34:10.716Z,162.93
2023-01-25T18:36:37.266Z,164.98
2023-01-25T18:39:06.770Z,195.40
2023-01-25T18:41:33.267Z,208.82
2023-01-25T18:43:59.923Z,170.00
2023-01-25T18:46:26.321Z,167.98
2023-01-25T18:48:52.726Z,187.98
2023-01-25T18:51:19.254Z,210.15
2023-01-25T18:53:49.122Z,253.32
2023-01-25T18:56:21.208Z,168.85
2023-01-25T18:58:48.576Z,166.43
2023-01-25T19:01:21.111Z,149.70
2023-01-25T19:03:49.599Z,143.48
2023-01-25T19:06:16.942Z,153.52
2023-01-25T19:08:46.334Z,151.70
2023-01-25T19:11:15.972Z,145.63
2023-01-25T19:13:44.132Z,137.10
2023-01-25T19:16:24.529Z,136.88
2023-01-25T19:18:53.615Z,179.18
2023-01-25T19:21:22.820Z,145.32
2023-01-25T19:23:50.046Z,135.43
2023-01-25T19:26:19.101Z,140.73
2023-01-25T19:28:46.969Z,128.00
2023-01-25T19:31:24.770Z,138.45
2023-01-25T19:33:56.176Z,137.02
2023-01-25T19:36:23.175Z,157.10
2023-01-25T19:38:49.899Z,150.77
2023-01-25T19:41:21.440Z,139.13
2023-01-25T19:43:52.106Z,187.52
2023-01-25T19:46:20.763Z,146.75
2023-01-25T19:48:50.051Z,156.65
2023-01-25T19:51:22.532Z,142.85
2023-01-25T19:54:15.187Z,142.07
2023-01-25T19:56:43.125Z,147.10
2023-01-25T19:59:15.453Z,135.40
2023-01-25T20:01:43.889Z,154.98
2023-01-25T20:04:17.412Z,166.98
2023-01-25T20:06:43.826Z,151.45
2023-01-25T20:09:12.898Z,144.73
2023-01-25T20:11:40.733Z,170.82
2023-01-25T20:14:08.006Z,186.25
2023-01-25T20:16:35.343Z,180.60
2023-01-25T20:19:03.005Z,147.35
2023-01-25T20:21:31.065Z,156.57
2023-01-25T20:24:02.337Z,153.60
2023-01-25T20:26:34.797Z,155.77
2023-01-25T20:29:01.301Z,143.23
2023-01-25T20:31:33.752Z,147.32
2023-01-25T20:34:03.676Z,153.50
2023-01-25T20:36:31.569Z,143.70
2023-01-25T20:38:58.133Z,159.07
2023-01-25T20:41:25.019Z,175.02
2023-01-25T20:44:06.961Z,179.38
2023-01-25T20:46:34.663Z,175.82
2023-01-25T20:49:03.230Z,142.95
2023-01-25T20:51:29.954Z,204.57
2023-01-25T20:53:56.964Z,182.38
2023-01-25T20:56:23.860Z,140.70
2023-01-25T20:58:51.367Z,152.90
2023-01-25T21:01:28.237Z,146.18
2023-01-25T21:03:56.863Z,150.05
2023-01-25T21:06:24.958Z,149.80
2023-01-25T21:08:51.455Z,158.57
2023-01-25T21:11:18.038Z,147.45
2023-01-25T21:13:44.498Z,140.40
2023-01-25T21:16:15.118Z,159.32
2023-01-25T21:18:52.702Z,162.85
2023-01-25T21:21:21.876Z,166.52
2023-01-25T21:23:50.483Z,163.65
2023-01-25T21:26:20.264Z,173.05
2023-01-25T21:28:47.826Z,166.98
2023-01-25T21:31:20.174Z,173.35
2023-01-25T21:33:47.521Z,177.18
2023-01-25T21:36:15.830Z,164.48
2023-01-25T21:38:44.044Z,193.18
2023-01-25T21:41:13.096Z,192.90
2023-01-25T21:43:58.309Z,175.55
2023-01-25T21:46:26.963Z,181.57
2023-01-25T21:49:12.527Z,186.57
2023-01-25T21:51:46.976Z,196.30
2023-01-25T21:54:21.679Z,200.68
2023-01-25T21:56:50.141Z,206.68
2023-01-25T21:59:17.059Z,184.20
2023-01-25T22:01:44.245Z,186.77
2023-01-25T22:04:12.143Z,189.65
2023-01-25T22:06:38.907Z,165.27
2023-01-25T22:09:06.157Z,160.55
2023-01-25T22:11:32.958Z,179.65
2023-01-25T22:14:00.983Z,194.82
2023-01-25T22:16:29.297Z,177.18
2023-01-25T22:18:56.459Z,179.32
2023-01-25T22:21:25.635Z,182.88
2023-01-25T22:23:52.747Z,179.53
2023-01-25T22:26:21.307Z,232.30
2023-01-25T22:28:56.162Z,216.15
2023-01-25T22:31:24.872Z,220.93
2023-01-25T22:33:53.024Z,195.73
2023-01-25T22:36:21.765Z,210.77
2023-01-25T22:38:48.655Z,267.00
2023-01-25T22:41:24.666Z,254.35
2023-01-25T22:43:52.931Z,196.85
2023-01-25T22:46:21.479Z,178.30
2023-01-25T22:48:48.447Z,185.50
2023-01-25T22:51:26.692Z,190.65
2023-01-25T22:53:54.328Z,172.38
2023-01-25T22:56:24.132Z,194.38
2023-01-25T22:58:51.560Z,181.50
2023-01-25T23:01:23.863Z,194.80
2023-01-25T23:03:51.241Z,226.73
2023-01-25T23:06:26.570Z,195.75
2023-01-25T23:08:59.737Z,195.18
2023-01-25T23:11:32.181Z,183.00
2023-01-25T23:14:17.941Z,194.98
2023-01-25T23:16:44.606Z,199.05
2023-01-25T23:19:11.267Z,190.25
2023-01-25T23:21:37.854Z,192.77
2023-01-25T23:24:04.632Z,183.68
2023-01-25T23:26:37.554Z,172.50
2023-01-25T23:29:06.815Z,181.95
2023-01-25T23:31:33.365Z,173.77
2023-01-25T23:34:02.228Z,188.75
2023-01-25T23:36:38.774Z,181.55
2023-01-25T23:39:05.340Z,190.63
2023-01-25T23:41:32.220Z,178.02
2023-01-25T23:43:59.620Z,179.90
2023-01-25T23:46:27.452Z,195.68
2023-01-25T23:48:54.042Z,172.40
2023-01-25T23:51:20.472Z,189.98
2023-01-25T23:53:47.381Z,182.95
2023-01-25T23:56:16.906Z,158.65
2023-01-25T23:58:44.338Z,181.45
